deformed-offering
Saratoga-Weather Station Historical Data
Daily Summary for May 12, 2021 Units:  Both    English   Metric
Daily Weekly Monthly Yearly
  High: Low: Average:
Temperature: 78.2 °F /  25.7 °C 51.6 °F /  10.9 °C 64 °F /  17.8 °C
Dew Point: 56.9 °F /  13.8 °C 44.2 °F /  6.8 °C 52.3 °F /  11.3 °C
Humidity: 90% 45.8% 68%
Wind Speed: 4.5mph /  7.2km/h - 1.2mph /  1.9km/h
Wind Gust: 12mph /  19.3km/h - -
Wind- - ESE
Pressure: 30.03 in /  1016.8 hPa 29.90 in /  1012.4 hPa -
Precipitation: 0.00 in /  0 mm    
 
 
Tabular Data for May 12, 2021
Time Temperature Dew Point Pressure Wind Wind Speed Wind Gust Humidity Rainfall Rate (Hourly) solar
00:04 59.9 °F /  15.5 °C 52 °F /  11.1 °C 29.91in /  1012.8hPa Calm     75% 0.00in /  0mm 0 W/m2
00:09 59.8 °F /  15.4 °C 51.9 °F /  11.1 °C 29.91in /  1012.8hPa Calm     75% 0.00in /  0mm 0 W/m2
00:14 59.6 °F /  15.3 °C 51.7 °F /  10.9 °C 29.91in /  1012.8hPa Calm     75% 0.00in /  0mm 0 W/m2
00:19 59.5 °F /  15.3 °C 51.6 °F /  10.9 °C 29.91in /  1012.8hPa Calm     75% 0.00in /  0mm 0 W/m2
00:24 59.3 °F /  15.2 °C 51.4 °F /  10.8 °C 29.90in /  1012.4hPa Calm     75% 0.00in /  0mm 0 W/m2
00:29 59.2 °F /  15.1 °C 51.3 °F /  10.7 °C 29.91in /  1012.8hPa Calm     75% 0.00in /  0mm 0 W/m2
00:34 59 °F /  15 °C 51.1 °F /  10.6 °C 29.91in /  1012.8hPa Calm     75.1% 0.00in /  0mm 0 W/m2
00:39 58.9 °F /  14.9 °C 51.3 °F /  10.7 °C 29.91in /  1012.8hPa Calm     76% 0.00in /  0mm 0 W/m2
00:44 58.7 °F /  14.8 °C 51.2 °F /  10.7 °C 29.91in /  1012.8hPa Calm     76% 0.00in /  0mm 0 W/m2
00:49 58.6 °F /  14.8 °C 51.1 °F /  10.6 °C 29.91in /  1012.8hPa Calm     76% 0.00in /  0mm 0 W/m2
00:54 58.4 °F /  14.7 °C 50.9 °F /  10.5 °C 29.91in /  1012.8hPa Calm     76% 0.00in /  0mm 0 W/m2
00:59 58.3 °F /  14.6 °C 50.8 °F /  10.4 °C 29.91in /  1012.8hPa Calm     76% 0.00in /  0mm 0 W/m2
01:04 58.1 °F /  14.5 °C 50.6 °F /  10.3 °C 29.91in /  1012.8hPa Calm     76% 0.00in /  0mm 0 W/m2
01:09 58 °F /  14.4 °C 50.5 °F /  10.3 °C 29.91in /  1012.8hPa Calm     76% 0.00in /  0mm 0 W/m2
01:14 57.8 °F /  14.3 °C 50.4 °F /  10.2 °C 29.91in /  1012.8hPa Calm     76.4% 0.00in /  0mm 0 W/m2
01:19 57.6 °F /  14.2 °C 50.4 °F /  10.2 °C 29.91in /  1012.8hPa Calm     77% 0.00in /  0mm 0 W/m2
01:24 57.5 °F /  14.2 °C 50.3 °F /  10.2 °C 29.91in /  1012.8hPa Calm     77% 0.00in /  0mm 0 W/m2
01:29 57.3 °F /  14.1 °C 50.1 °F /  10.1 °C 29.91in /  1012.8hPa Calm     77% 0.00in /  0mm 0 W/m2
01:34 57.1 °F /  13.9 °C 50 °F /  10 °C 29.91in /  1012.8hPa Calm     77% 0.00in /  0mm 0 W/m2
01:39 57 °F /  13.9 °C 49.9 °F /  9.9 °C 29.91in /  1012.8hPa Calm     77.1% 0.00in /  0mm 0 W/m2
01:44 56.9 °F /  13.8 °C 50.1 °F /  10.1 °C 29.91in /  1012.8hPa Calm     78% 0.00in /  0mm 0 W/m2
01:49 56.7 °F /  13.7 °C 49.9 °F /  9.9 °C 29.91in /  1012.8hPa Calm     78% 0.00in /  0mm 0 W/m2
01:54 56.6 °F /  13.7 °C 49.8 °F /  9.9 °C 29.91in /  1012.8hPa Calm     78% 0.00in /  0mm 0 W/m2
01:59 56.5 °F /  13.6 °C 49.7 °F /  9.8 °C 29.91in /  1012.8hPa Calm     78% 0.00in /  0mm 0 W/m2
02:04 56.4 °F /  13.6 °C 49.7 °F /  9.8 °C 29.91in /  1012.8hPa Calm     78.4% 0.00in /  0mm 0 W/m2
02:09 56.3 °F /  13.5 °C 49.9 °F /  9.9 °C 29.91in /  1012.8hPa Calm     79% 0.00in /  0mm 0 W/m2
02:14 56.2 °F /  13.4 °C 49.8 °F /  9.9 °C 29.91in /  1012.8hPa Calm     79% 0.00in /  0mm 0 W/m2
02:19 56 °F /  13.3 °C 49.6 °F /  9.8 °C 29.91in /  1012.8hPa Calm     79% 0.00in /  0mm 0 W/m2
02:24 55.9 °F /  13.3 °C 49.5 °F /  9.7 °C 29.91in /  1012.8hPa Calm     79% 0.00in /  0mm 0 W/m2
02:29 55.8 °F /  13.2 °C 49.4 °F /  9.7 °C 29.90in /  1012.4hPa Calm     79% 0.00in /  0mm 0 W/m2
02:34 55.7 °F /  13.2 °C 49.2 °F /  9.6 °C 29.90in /  1012.4hPa Calm     78.8% 0.00in /  0mm 0 W/m2
02:39 55.6 °F /  13.1 °C 48.9 °F /  9.4 °C 29.90in /  1012.4hPa Calm     78.4% 0.00in /  0mm 0 W/m2
02:44 55.4 °F /  13 °C 48.9 °F /  9.4 °C 29.90in /  1012.4hPa Calm     78.8% 0.00in /  0mm 0 W/m2
02:49 55.3 °F /  12.9 °C 48.6 °F /  9.2 °C 29.90in /  1012.4hPa Calm     78% 0.00in /  0mm 0 W/m2
02:54 55.1 °F /  12.8 °C 48.4 °F /  9.1 °C 29.90in /  1012.4hPa Calm     78% 0.00in /  0mm 0 W/m2
02:59 55 °F /  12.8 °C 48.3 °F /  9.1 °C 29.90in /  1012.4hPa Calm     78% 0.00in /  0mm 0 W/m2
03:04 54.8 °F /  12.7 °C 47.7 °F /  8.7 °C 29.91in /  1012.8hPa Calm     77.1% 0.00in /  0mm 0 W/m2
03:09 54.6 °F /  12.6 °C 47.6 °F /  8.7 °C 29.91in /  1012.8hPa Calm     77.1% 0.00in /  0mm 0 W/m2
03:14 54.5 °F /  12.5 °C 47.5 °F /  8.6 °C 29.91in /  1012.8hPa Calm     77.1% 0.00in /  0mm 0 W/m2
03:19 54.4 °F /  12.4 °C 47.7 °F /  8.7 °C 29.91in /  1012.8hPa Calm     78% 0.00in /  0mm 0 W/m2
03:24 54.3 °F /  12.4 °C 47.6 °F /  8.7 °C 29.91in /  1012.8hPa Calm     78% 0.00in /  0mm 0 W/m2
03:29 54.2 °F /  12.3 °C 47.5 °F /  8.6 °C 29.91in /  1012.8hPa Calm     78% 0.00in /  0mm 0 W/m2
03:34 54.1 °F /  12.3 °C 47.4 °F /  8.6 °C 29.91in /  1012.8hPa Calm     78% 0.00in /  0mm 0 W/m2
03:39 54.1 °F /  12.3 °C 47.4 °F /  8.6 °C 29.91in /  1012.8hPa Calm     78% 0.00in /  0mm 0 W/m2
03:44 54 °F /  12.2 °C 47.5 °F /  8.6 °C 29.91in /  1012.8hPa Calm     78.7% 0.00in /  0mm 0 W/m2
03:49 53.9 °F /  12.2 °C 47.5 °F /  8.6 °C 29.91in /  1012.8hPa Calm     79% 0.00in /  0mm 0 W/m2
03:54 53.8 °F /  12.1 °C 47.4 °F /  8.6 °C 29.91in /  1012.8hPa Calm     79% 0.00in /  0mm 0 W/m2
03:59 53.7 °F /  12.1 °C 47.3 °F /  8.5 °C 29.91in /  1012.8hPa Calm     79% 0.00in /  0mm 0 W/m2
04:04 53.6 °F /  12 °C 47.2 °F /  8.4 °C 29.91in /  1012.8hPa Calm     79% 0.00in /  0mm 0 W/m2
04:09 53.5 °F /  11.9 °C 47.1 °F /  8.4 °C 29.91in /  1012.8hPa Calm     79% 0.00in /  0mm 0 W/m2
04:14 53.3 °F /  11.8 °C 47 °F /  8.3 °C 29.91in /  1012.8hPa Calm     79% 0.00in /  0mm 0 W/m2
04:19 53.2 °F /  11.8 °C 46.7 °F /  8.2 °C 29.91in /  1012.8hPa Calm     78.4% 0.00in /  0mm 0 W/m2
04:24 53.1 °F /  11.7 °C 46.4 °F /  8 °C 29.91in /  1012.8hPa Calm     78% 0.00in /  0mm 0 W/m2
04:29 53 °F /  11.7 °C 46.3 °F /  7.9 °C 29.91in /  1012.8hPa Calm     78% 0.00in /  0mm 0 W/m2
04:34 52.9 °F /  11.6 °C 46.1 °F /  7.8 °C 29.91in /  1012.8hPa Calm     77.9% 0.00in /  0mm 0 W/m2
04:39 52.8 °F /  11.6 °C 45.8 °F /  7.7 °C 29.91in /  1012.8hPa Calm     77% 0.00in /  0mm 0 W/m2
04:44 52.6 °F /  11.4 °C 45.4 °F /  7.4 °C 29.91in /  1012.8hPa Calm     76.6% 0.00in /  0mm 0 W/m2
04:49 52.5 °F /  11.4 °C 45.2 °F /  7.3 °C 29.91in /  1012.8hPa Calm     75.9% 0.00in /  0mm 0 W/m2
04:54 52.3 °F /  11.3 °C 44.6 °F /  7 °C 29.91in /  1012.8hPa Calm     75% 0.00in /  0mm 0 W/m2
04:59 52.2 °F /  11.2 °C 44.5 °F /  6.9 °C 29.91in /  1012.8hPa Calm     75% 0.00in /  0mm 0 W/m2
05:04 52.1 °F /  11.2 °C 44.4 °F /  6.9 °C 29.91in /  1012.8hPa Calm     75% 0.00in /  0mm 0 W/m2
05:09 52 °F /  11.1 °C 44.3 °F /  6.8 °C 29.91in /  1012.8hPa Calm     75% 0.00in /  0mm 0 W/m2
05:14 51.9 °F /  11.1 °C 44.2 °F /  6.8 °C 29.91in /  1012.8hPa Calm     75% 0.00in /  0mm 0 W/m2
05:19 51.9 °F /  11.1 °C 44.2 °F /  6.8 °C 29.91in /  1012.8hPa Calm     75% 0.00in /  0mm 0 W/m2
05:24 51.8 °F /  11 °C 44.2 °F /  6.8 °C 29.91in /  1012.8hPa Calm     75.4% 0.00in /  0mm 0 W/m2
05:29 51.7 °F /  10.9 °C 44.4 °F /  6.9 °C 29.91in /  1012.8hPa Calm     76% 0.00in /  0mm 0 W/m2
05:34 51.7 °F /  10.9 °C 44.5 °F /  6.9 °C 29.91in /  1012.8hPa Calm     76.4% 0.00in /  0mm 0 W/m2
05:39 51.7 °F /  10.9 °C 44.7 °F /  7.1 °C 29.91in /  1012.8hPa Calm     77% 0.00in /  0mm 0 W/m2
05:44 51.6 °F /  10.9 °C 44.6 °F /  7 °C 29.91in /  1012.8hPa Calm     77.1% 0.00in /  0mm 0 W/m2
05:49 51.6 °F /  10.9 °C 45 °F /  7.2 °C 29.92in /  1013.1hPa Calm     78% 0.00in /  0mm 0 W/m2
05:54 51.6 °F /  10.9 °C 45.1 °F /  7.3 °C 29.92in /  1013.1hPa Calm     78.2% 0.00in /  0mm 0 W/m2
05:59 51.6 °F /  10.9 °C 45.3 °F /  7.4 °C 29.92in /  1013.1hPa Calm     79.1% 0.00in /  0mm 0 W/m2
06:04 51.6 °F /  10.9 °C 45.6 °F /  7.6 °C 29.92in /  1013.1hPa Calm     80% 0.00in /  0mm 5 W/m2
06:09 51.6 °F /  10.9 °C 46 °F /  7.8 °C 29.92in /  1013.1hPa Calm     80.9% 0.00in /  0mm 7 W/m2
06:14 51.6 °F /  10.9 °C 46 °F /  7.8 °C 29.92in /  1013.1hPa Calm     81% 0.00in /  0mm 11 W/m2
06:19 51.6 °F /  10.9 °C 46.2 °F /  7.9 °C 29.93in /  1013.4hPa Calm     81.6% 0.00in /  0mm 16 W/m2
06:24 51.6 °F /  10.9 °C 46.3 °F /  7.9 °C 29.93in /  1013.4hPa Calm     82% 0.00in /  0mm 25 W/m2
06:29 51.6 °F /  10.9 °C 46.3 °F /  7.9 °C 29.93in /  1013.4hPa Calm     82.1% 0.00in /  0mm 25 W/m2
06:34 51.6 °F /  10.9 °C 46.6 °F /  8.1 °C 29.93in /  1013.4hPa Calm     83% 0.00in /  0mm 30 W/m2
06:39 51.7 °F /  10.9 °C 46.7 °F /  8.2 °C 29.94in /  1013.8hPa Calm     83.1% 0.00in /  0mm 35 W/m2
06:44 51.8 °F /  11 °C 47.1 °F /  8.4 °C 29.94in /  1013.8hPa Calm     84% 0.00in /  0mm 84 W/m2
06:49 52 °F /  11.1 °C 47.3 °F /  8.5 °C 29.94in /  1013.8hPa Calm     84% 0.00in /  0mm 116 W/m2
06:54 52 °F /  11.1 °C 47.3 °F /  8.5 °C 29.95in /  1014.1hPa Calm     84% 0.00in /  0mm 125 W/m2
06:59 52.2 °F /  11.2 °C 47.5 °F /  8.6 °C 29.95in /  1014.1hPa Calm     84% 0.00in /  0mm 135 W/m2
07:04 52.2 °F /  11.2 °C 47.5 °F /  8.6 °C 29.95in /  1014.1hPa Calm     84% 0.00in /  0mm 148 W/m2
07:09 52.4 °F /  11.3 °C 47.7 °F /  8.7 °C 29.96in /  1014.4hPa North 0.7mph /  1.1km/h 3.5mph /  5.6km/h 84.1% 0.00in /  0mm 162 W/m2
07:14 52.6 °F /  11.4 °C 48.2 °F /  9 °C 29.96in /  1014.4hPa Calm   2.3mph /  3.7km/h 85% 0.00in /  0mm 172 W/m2
07:19 52.9 °F /  11.6 °C 48.7 °F /  9.3 °C 29.96in /  1014.4hPa North 0.9mph /  1.4km/h 3.5mph /  5.6km/h 85.9% 0.00in /  0mm 194 W/m2
07:24 53.2 °F /  11.8 °C 49.3 °F /  9.6 °C 29.96in /  1014.4hPa North 0.4mph /  0.6km/h 3.5mph /  5.6km/h 86.7% 0.00in /  0mm 215 W/m2
07:29 53.5 °F /  11.9 °C 49.9 °F /  9.9 °C 29.96in /  1014.4hPa North 0.7mph /  1.1km/h 3.5mph /  5.6km/h 87.7% 0.00in /  0mm 232 W/m2
07:34 53.8 °F /  12.1 °C 50.4 °F /  10.2 °C 29.96in /  1014.4hPa North 0.4mph /  0.6km/h 3mph /  4.8km/h 88.3% 0.00in /  0mm 246 W/m2
07:39 54.1 °F /  12.3 °C 50.9 °F /  10.5 °C 29.96in /  1014.4hPa North 0.3mph /  0.5km/h 2.3mph /  3.7km/h 89% 0.00in /  0mm 259 W/m2
07:44 54.3 °F /  12.4 °C 51.1 °F /  10.6 °C 29.96in /  1014.4hPa North 0.3mph /  0.5km/h 3.5mph /  5.6km/h 89% 0.00in /  0mm 274 W/m2
07:49 54.6 °F /  12.6 °C 51.4 °F /  10.8 °C 29.96in /  1014.4hPa North 0.9mph /  1.4km/h 3.5mph /  5.6km/h 89% 0.00in /  0mm 303 W/m2
07:54 54.9 °F /  12.7 °C 51.7 °F /  10.9 °C 29.96in /  1014.4hPa North 0.3mph /  0.5km/h 2.3mph /  3.7km/h 89% 0.00in /  0mm 315 W/m2
07:59 55.1 °F /  12.8 °C 52 °F /  11.1 °C 29.96in /  1014.4hPa North 0.2mph /  0.3km/h 2.3mph /  3.7km/h 89.4% 0.00in /  0mm 333 W/m2
08:04 55.4 °F /  13 °C 52.5 °F /  11.4 °C 29.97in /  1014.8hPa North 0.2mph /  0.3km/h 2.3mph /  3.7km/h 90% 0.00in /  0mm 345 W/m2
08:09 55.6 °F /  13.1 °C 52.7 °F /  11.5 °C 29.97in /  1014.8hPa North 0.4mph /  0.6km/h 2.3mph /  3.7km/h 90% 0.00in /  0mm 336 W/m2
08:14 55.8 °F /  13.2 °C 52.9 °F /  11.6 °C 29.97in /  1014.8hPa North 0.4mph /  0.6km/h 2.3mph /  3.7km/h 90% 0.00in /  0mm 373 W/m2
08:19 56 °F /  13.3 °C 53.1 °F /  11.7 °C 29.97in /  1014.8hPa North 1.1mph /  1.8km/h 5mph /  8km/h 90% 0.00in /  0mm 389 W/m2
08:24 56.3 °F /  13.5 °C 53.4 °F /  11.9 °C 29.97in /  1014.8hPa North 1.1mph /  1.8km/h 5mph /  8km/h 90% 0.00in /  0mm 399 W/m2
08:29 56.5 °F /  13.6 °C 53.4 °F /  11.9 °C 29.97in /  1014.8hPa North 0.2mph /  0.3km/h 2.3mph /  3.7km/h 89.2% 0.00in /  0mm 419 W/m2
08:34 56.6 °F /  13.7 °C 53.4 °F /  11.9 °C 29.97in /  1014.8hPa North 1.1mph /  1.8km/h 3.5mph /  5.6km/h 89% 0.00in /  0mm 431 W/m2
08:39 56.8 °F /  13.8 °C 53.6 °F /  12 °C 29.97in /  1014.8hPa North 1.5mph /  2.4km/h 3.5mph /  5.6km/h 88.8% 0.00in /  0mm 449 W/m2
08:44 57 °F /  13.9 °C 53.5 °F /  11.9 °C 29.97in /  1014.8hPa NNE 1mph /  1.6km/h 4mph /  6.4km/h 88% 0.00in /  0mm 456 W/m2
08:49 57.2 °F /  14 °C 53.7 °F /  12.1 °C 29.97in /  1014.8hPa NNE 0.7mph /  1.1km/h 3.5mph /  5.6km/h 88% 0.00in /  0mm 473 W/m2
08:54 57.4 °F /  14.1 °C 53.7 °F /  12.1 °C 29.97in /  1014.8hPa NNE 1.9mph /  3.1km/h 5mph /  8km/h 87.3% 0.00in /  0mm 493 W/m2
08:59 57.6 °F /  14.2 °C 53.8 °F /  12.1 °C 29.98in /  1015.1hPa NNE 1.7mph /  2.7km/h 5mph /  8km/h 86.9% 0.00in /  0mm 505 W/m2
09:04 57.9 °F /  14.4 °C 53.7 °F /  12.1 °C 29.98in /  1015.1hPa NNE 2mph /  3.2km/h 5mph /  8km/h 86% 0.00in /  0mm 514 W/m2
09:09 58.2 °F /  14.6 °C 53.8 °F /  12.1 °C 29.98in /  1015.1hPa NNE 2.6mph /  4.2km/h 5mph /  8km/h 85.3% 0.00in /  0mm 531 W/m2
09:14 58.4 °F /  14.7 °C 53.7 °F /  12.1 °C 29.98in /  1015.1hPa NNE 1.3mph /  2.1km/h 5mph /  8km/h 84.3% 0.00in /  0mm 547 W/m2
09:19 58.7 °F /  14.8 °C 53.9 °F /  12.2 °C 29.98in /  1015.1hPa NNE 1.2mph /  1.9km/h 3.5mph /  5.6km/h 84% 0.00in /  0mm 561 W/m2
09:24 59 °F /  15 °C 53.9 °F /  12.2 °C 29.98in /  1015.1hPa NNE 1.3mph /  2.1km/h 3.5mph /  5.6km/h 83.4% 0.00in /  0mm 574 W/m2
09:29 59.2 °F /  15.1 °C 53.8 °F /  12.1 °C 29.98in /  1015.1hPa NE 1.9mph /  3.1km/h 6mph /  9.7km/h 82.1% 0.00in /  0mm 589 W/m2
09:34 59.5 °F /  15.3 °C 53.6 °F /  12 °C 29.98in /  1015.1hPa NE 1.7mph /  2.7km/h 6mph /  9.7km/h 80.8% 0.00in /  0mm 602 W/m2
09:39 59.9 °F /  15.5 °C 53.5 °F /  11.9 °C 29.98in /  1015.1hPa NE 1.1mph /  1.8km/h 3.5mph /  5.6km/h 79.4% 0.00in /  0mm 616 W/m2
09:44 60.2 °F /  15.7 °C 53.4 °F /  11.9 °C 29.99in /  1015.5hPa NE 1.8mph /  2.9km/h 5mph /  8km/h 78.1% 0.00in /  0mm 630 W/m2
09:49 60.6 °F /  15.9 °C 53.6 °F /  12 °C 29.99in /  1015.5hPa NE 0.6mph /  1km/h 5mph /  8km/h 77.7% 0.00in /  0mm 644 W/m2
09:54 61 °F /  16.1 °C 53.7 °F /  12.1 °C 29.99in /  1015.5hPa NE 1.9mph /  3.1km/h 5mph /  8km/h 76.9% 0.00in /  0mm 655 W/m2
09:59 61.3 °F /  16.3 °C 53.8 °F /  12.1 °C 29.99in /  1015.5hPa NE 1.4mph /  2.3km/h 5mph /  8km/h 76.3% 0.00in /  0mm 667 W/m2
10:04 61.7 °F /  16.5 °C 54.1 °F /  12.3 °C 29.99in /  1015.5hPa NE 1mph /  1.6km/h 3.5mph /  5.6km/h 76% 0.00in /  0mm 681 W/m2
10:09 62.1 °F /  16.7 °C 54.2 °F /  12.3 °C 29.99in /  1015.5hPa NE 1.1mph /  1.8km/h 4mph /  6.4km/h 75.4% 0.00in /  0mm 691 W/m2
10:14 62.4 °F /  16.9 °C 54.4 °F /  12.4 °C 29.99in /  1015.5hPa ENE 1.4mph /  2.3km/h 5mph /  8km/h 75% 0.00in /  0mm 704 W/m2
10:19 62.8 °F /  17.1 °C 54.7 °F /  12.6 °C 29.99in /  1015.5hPa ENE 1.8mph /  2.9km/h 5mph /  8km/h 74.6% 0.00in /  0mm 714 W/m2
10:24 63.2 °F /  17.3 °C 54.4 °F /  12.4 °C 29.99in /  1015.5hPa North 1.3mph /  2.1km/h 5mph /  8km/h 73% 0.00in /  0mm 721 W/m2
10:29 63.6 °F /  17.6 °C 54 °F /  12.2 °C 29.99in /  1015.5hPa North 1.9mph /  3.1km/h 5mph /  8km/h 71.2% 0.00in /  0mm 734 W/m2
10:34 64.1 °F /  17.8 °C 53.8 °F /  12.1 °C 29.99in /  1015.5hPa NNE 1.7mph /  2.7km/h 5mph /  8km/h 69.4% 0.00in /  0mm 744 W/m2
10:39 64.5 °F /  18.1 °C 54.2 °F /  12.3 °C 29.99in /  1015.5hPa NE 1mph /  1.6km/h 5mph /  8km/h 69.3% 0.00in /  0mm 757 W/m2
10:44 64.9 °F /  18.3 °C 54.8 °F /  12.7 °C 29.99in /  1015.5hPa NE 0.6mph /  1km/h 4mph /  6.4km/h 69.7% 0.00in /  0mm 762 W/m2
10:49 65.3 °F /  18.5 °C 54.4 °F /  12.4 °C 29.99in /  1015.5hPa NE 1.9mph /  3.1km/h 6mph /  9.7km/h 67.7% 0.00in /  0mm 774 W/m2
10:54 65.7 °F /  18.7 °C 54.2 °F /  12.3 °C 29.99in /  1015.5hPa NNE 2.3mph /  3.7km/h 6mph /  9.7km/h 66.6% 0.00in /  0mm 779 W/m2
10:59 66.2 °F /  19 °C 54.3 °F /  12.4 °C 29.99in /  1015.5hPa NNE 0.9mph /  1.4km/h 6mph /  9.7km/h 65.7% 0.00in /  0mm 787 W/m2
11:04 66.5 °F /  19.2 °C 54.6 °F /  12.6 °C 29.99in /  1015.5hPa North 1.5mph /  2.4km/h 5mph /  8km/h 65.4% 0.00in /  0mm 801 W/m2
11:09 67 °F /  19.4 °C 54.5 °F /  12.5 °C 29.99in /  1015.5hPa North 1.2mph /  1.9km/h 5mph /  8km/h 64.3% 0.00in /  0mm 806 W/m2
11:14 67.4 °F /  19.7 °C 54.8 °F /  12.7 °C 29.99in /  1015.5hPa North 1.4mph /  2.3km/h 5mph /  8km/h 64% 0.00in /  0mm 818 W/m2
11:19 67.8 °F /  19.9 °C 54.7 °F /  12.6 °C 29.99in /  1015.5hPa North 1mph /  1.6km/h 5mph /  8km/h 62.9% 0.00in /  0mm 825 W/m2
11:24 68.2 °F /  20.1 °C 54.8 °F /  12.7 °C 29.99in /  1015.5hPa NNE 1.4mph /  2.3km/h 7mph /  11.3km/h 62.2% 0.00in /  0mm 830 W/m2
11:29 68.6 °F /  20.3 °C 55.4 °F /  13 °C 29.99in /  1015.5hPa NNE 2.1mph /  3.4km/h 7mph /  11.3km/h 62.9% 0.00in /  0mm 838 W/m2
11:34 69 °F /  20.6 °C 55.3 °F /  12.9 °C 29.99in /  1015.5hPa North 2.8mph /  4.5km/h 7mph /  11.3km/h 61.8% 0.00in /  0mm 845 W/m2
11:39 69.4 °F /  20.8 °C 55.3 °F /  12.9 °C 29.99in /  1015.5hPa North 2.5mph /  4km/h 7mph /  11.3km/h 60.7% 0.00in /  0mm 848 W/m2
11:44 69.8 °F /  21 °C 55.6 °F /  13.1 °C 29.99in /  1015.5hPa North 2.3mph /  3.7km/h 6mph /  9.7km/h 60.8% 0.00in /  0mm 853 W/m2
11:49 70.1 °F /  21.2 °C 55.4 °F /  13 °C 29.99in /  1015.5hPa North 2mph /  3.2km/h 6mph /  9.7km/h 59.6% 0.00in /  0mm 859 W/m2
11:54 70.5 °F /  21.4 °C 56 °F /  13.3 °C 29.99in /  1015.5hPa NE 0.7mph /  1.1km/h 6mph /  9.7km/h 60.2% 0.00in /  0mm 864 W/m2
11:59 70.8 °F /  21.6 °C 55.9 °F /  13.3 °C 29.99in /  1015.5hPa NNE 1.3mph /  2.1km/h 3.5mph /  5.6km/h 59.4% 0.00in /  0mm 867 W/m2
12:04 71 °F /  21.7 °C 55.8 °F /  13.2 °C 29.99in /  1015.5hPa North 2.3mph /  3.7km/h 6mph /  9.7km/h 58.6% 0.00in /  0mm 873 W/m2
12:09 71.5 °F /  21.9 °C 55.8 °F /  13.2 °C 29.99in /  1015.5hPa North 4mph /  6.4km/h 10.4mph /  16.7km/h 57.8% 0.00in /  0mm 874 W/m2
12:14 71.9 °F /  22.2 °C 55.8 °F /  13.2 °C 29.99in /  1015.5hPa North 2.5mph /  4km/h 10mph /  16.1km/h 57% 0.00in /  0mm 876 W/m2
12:19 72.2 °F /  22.3 °C 55.9 °F /  13.3 °C 29.99in /  1015.5hPa North 3.3mph /  5.3km/h 8.1mph /  13km/h 56.6% 0.00in /  0mm 882 W/m2
12:24 72.6 °F /  22.6 °C 56.1 °F /  13.4 °C 29.99in /  1015.5hPa NNE 1.1mph /  1.8km/h 6mph /  9.7km/h 56.3% 0.00in /  0mm 882 W/m2
12:29 72.7 °F /  22.6 °C 56.4 °F /  13.6 °C 29.99in /  1015.5hPa NNE 2.3mph /  3.7km/h 7mph /  11.3km/h 56.5% 0.00in /  0mm 885 W/m2
12:34 72.9 °F /  22.7 °C 56.3 °F /  13.5 °C 29.99in /  1015.5hPa NNW 1.9mph /  3.1km/h 7mph /  11.3km/h 56% 0.00in /  0mm 887 W/m2
12:39 73.1 °F /  22.8 °C 56.4 °F /  13.6 °C 29.99in /  1015.5hPa NNE 3.3mph /  5.3km/h 7mph /  11.3km/h 55.8% 0.00in /  0mm 889 W/m2
12:44 73.4 °F /  23 °C 56.5 °F /  13.6 °C 29.98in /  1015.1hPa NNE 3.5mph /  5.6km/h 7mph /  11.3km/h 55.7% 0.00in /  0mm 889 W/m2
12:49 73.6 °F /  23.1 °C 56.5 °F /  13.6 °C 29.98in /  1015.1hPa NNW 3.1mph /  5km/h 8.1mph /  13km/h 55.1% 0.00in /  0mm 892 W/m2
12:54 73.9 °F /  23.3 °C 56.6 °F /  13.7 °C 29.98in /  1015.1hPa NNW 2.5mph /  4km/h 8mph /  12.9km/h 54.9% 0.00in /  0mm 892 W/m2
12:59 74.1 °F /  23.4 °C 56.5 °F /  13.6 °C 29.98in /  1015.1hPa NNW 3.5mph /  5.6km/h 10.4mph /  16.7km/h 54.2% 0.00in /  0mm 892 W/m2
13:04 74.2 °F /  23.4 °C 56.4 °F /  13.6 °C 29.98in /  1015.1hPa NNE 3.7mph /  6km/h 10.4mph /  16.7km/h 53.8% 0.00in /  0mm 892 W/m2
13:09 74.4 °F /  23.6 °C 56.6 °F /  13.7 °C 29.98in /  1015.1hPa NNW 2.9mph /  4.7km/h 10.4mph /  16.7km/h 53.7% 0.00in /  0mm 894 W/m2
13:14 74.6 °F /  23.7 °C 56.6 °F /  13.7 °C 29.98in /  1015.1hPa NNW 3.3mph /  5.3km/h 7mph /  11.3km/h 53.5% 0.00in /  0mm 890 W/m2
13:19 74.6 °F /  23.7 °C 56.3 °F /  13.5 °C 29.98in /  1015.1hPa North 4.2mph /  6.8km/h 7mph /  11.3km/h 53% 0.00in /  0mm 890 W/m2
13:24 74.7 °F /  23.7 °C 56.4 °F /  13.6 °C 29.98in /  1015.1hPa North 4.1mph /  6.6km/h 10.4mph /  16.7km/h 53% 0.00in /  0mm 889 W/m2
13:29 74.8 °F /  23.8 °C 56.5 °F /  13.6 °C 29.98in /  1015.1hPa North 3.4mph /  5.5km/h 10mph /  16.1km/h 53% 0.00in /  0mm 887 W/m2
13:34 74.9 °F /  23.8 °C 56.5 °F /  13.6 °C 29.98in /  1015.1hPa NNE 3.6mph /  5.8km/h 10.4mph /  16.7km/h 52.8% 0.00in /  0mm 885 W/m2
13:39 75.1 °F /  23.9 °C 56.5 °F /  13.6 °C 29.98in /  1015.1hPa NNE 4.5mph /  7.2km/h 10mph /  16.1km/h 52.4% 0.00in /  0mm 883 W/m2
13:44 75.2 °F /  24 °C 56.9 °F /  13.8 °C 29.98in /  1015.1hPa North 3.1mph /  5km/h 8mph /  12.9km/h 53% 0.00in /  0mm 878 W/m2
13:49 75.4 °F /  24.1 °C 56.5 °F /  13.6 °C 29.97in /  1014.8hPa North 2.5mph /  4km/h 8.1mph /  13km/h 52% 0.00in /  0mm 876 W/m2
13:54 75.5 °F /  24.2 °C 56.3 °F /  13.5 °C 29.97in /  1014.8hPa NNE 3.5mph /  5.6km/h 8.1mph /  13km/h 51.2% 0.00in /  0mm 873 W/m2
13:59 75.7 °F /  24.3 °C 56.5 °F /  13.6 °C 29.97in /  1014.8hPa NNE 3.9mph /  6.3km/h 8.1mph /  13km/h 51.3% 0.00in /  0mm 869 W/m2
14:04 75.9 °F /  24.4 °C 56.4 °F /  13.6 °C 29.97in /  1014.8hPa North 3mph /  4.8km/h 7mph /  11.3km/h 50.9% 0.00in /  0mm 862 W/m2
14:09 76 °F /  24.4 °C 56 °F /  13.3 °C 29.97in /  1014.8hPa North 2.4mph /  3.9km/h 7mph /  11.3km/h 50% 0.00in /  0mm 862 W/m2
14:14 76.1 °F /  24.5 °C 55.8 °F /  13.2 °C 29.97in /  1014.8hPa NNE 3.6mph /  5.8km/h 9.2mph /  14.8km/h 49.5% 0.00in /  0mm 859 W/m2
14:19 76.3 °F /  24.6 °C 55.7 °F /  13.2 °C 29.97in /  1014.8hPa North 3.5mph /  5.6km/h 7mph /  11.3km/h 48.9% 0.00in /  0mm 852 W/m2
14:24 76.4 °F /  24.7 °C 55.4 °F /  13 °C 29.97in /  1014.8hPa NNE 4.1mph /  6.6km/h 8.1mph /  13km/h 48.2% 0.00in /  0mm 848 W/m2
14:29 76.5 °F /  24.7 °C 55.3 °F /  12.9 °C 29.97in /  1014.8hPa North 3.6mph /  5.8km/h 8.1mph /  13km/h 47.9% 0.00in /  0mm 843 W/m2
14:34 76.7 °F /  24.8 °C 55 °F /  12.8 °C 29.97in /  1014.8hPa North 3.5mph /  5.6km/h 8.1mph /  13km/h 47% 0.00in /  0mm 838 W/m2
14:39 76.8 °F /  24.9 °C 55 °F /  12.8 °C 29.97in /  1014.8hPa North 2.5mph /  4km/h 8.1mph /  13km/h 47% 0.00in /  0mm 830 W/m2
14:44 76.8 °F /  24.9 °C 55 °F /  12.8 °C 29.96in /  1014.4hPa NNE 2.8mph /  4.5km/h 8mph /  12.9km/h 47% 0.00in /  0mm 825 W/m2
14:49 77 °F /  25 °C 55.2 °F /  12.9 °C 29.96in /  1014.4hPa North 2.6mph /  4.2km/h 7mph /  11.3km/h 47% 0.00in /  0mm 823 W/m2
14:54 77.2 °F /  25.1 °C 55.4 °F /  13 °C 29.96in /  1014.4hPa North 2.4mph /  3.9km/h 6mph /  9.7km/h 47% 0.00in /  0mm 809 W/m2
14:59 77.3 °F /  25.2 °C 55.1 °F /  12.8 °C 29.96in /  1014.4hPa North 3.3mph /  5.3km/h 7mph /  11.3km/h 46.3% 0.00in /  0mm 804 W/m2
15:04 77.4 °F /  25.2 °C 55 °F /  12.8 °C 29.96in /  1014.4hPa North 3.3mph /  5.3km/h 7mph /  11.3km/h 46% 0.00in /  0mm 797 W/m2
15:09 77.6 °F /  25.3 °C 55.1 °F /  12.8 °C 29.96in /  1014.4hPa North 2.9mph /  4.7km/h 7mph /  11.3km/h 45.8% 0.00in /  0mm 790 W/m2
15:14 77.7 °F /  25.4 °C 55.3 °F /  12.9 °C 29.96in /  1014.4hPa North 2.4mph /  3.9km/h 7mph /  11.3km/h 46% 0.00in /  0mm 781 W/m2
15:19 77.7 °F /  25.4 °C 55.5 °F /  13.1 °C 29.95in /  1014.1hPa North 2.5mph /  4km/h 7mph /  11.3km/h 46.4% 0.00in /  0mm 767 W/m2
15:24 77.8 °F /  25.4 °C 55.6 °F /  13.1 °C 29.95in /  1014.1hPa NNE 3.2mph /  5.1km/h 8mph /  12.9km/h 46.5% 0.00in /  0mm 760 W/m2
15:29 77.9 °F /  25.5 °C 55.8 °F /  13.2 °C 29.95in /  1014.1hPa North 2.5mph /  4km/h 8.1mph /  13km/h 46.6% 0.00in /  0mm 750 W/m2
15:34 78 °F /  25.6 °C 56 °F /  13.3 °C 29.95in /  1014.1hPa North 2.5mph /  4km/h 7mph /  11.3km/h 46.8% 0.00in /  0mm 739 W/m2
15:39 78.1 °F /  25.6 °C 56 °F /  13.3 °C 29.95in /  1014.1hPa NNE 3.4mph /  5.5km/h 10mph /  16.1km/h 46.7% 0.00in /  0mm 728 W/m2
15:44 78.1 °F /  25.6 °C 55.8 °F /  13.2 °C 29.95in /  1014.1hPa NNE 3.3mph /  5.3km/h 10.4mph /  16.7km/h 46.3% 0.00in /  0mm 720 W/m2
15:49 78.1 °F /  25.6 °C 55.8 °F /  13.2 °C 29.95in /  1014.1hPa North 3.4mph /  5.5km/h 8mph /  12.9km/h 46.4% 0.00in /  0mm 706 W/m2
15:54 78.2 °F /  25.7 °C 55.9 °F /  13.3 °C 29.95in /  1014.1hPa North 3.7mph /  6km/h 8.1mph /  13km/h 46.4% 0.00in /  0mm 695 W/m2
15:59 78.2 °F /  25.7 °C 56.2 °F /  13.4 °C 29.95in /  1014.1hPa NNE 4.3mph /  6.9km/h 10.4mph /  16.7km/h 46.8% 0.00in /  0mm 677 W/m2
16:04 78.2 °F /  25.7 °C 56.2 °F /  13.4 °C 29.95in /  1014.1hPa NNE 4.4mph /  7.1km/h 11.5mph /  18.5km/h 46.8% 0.00in /  0mm 625 W/m2
16:09 78.1 °F /  25.6 °C 56.1 °F /  13.4 °C 29.95in /  1014.1hPa North 3.6mph /  5.8km/h 12mph /  19.3km/h 46.8% 0.00in /  0mm 574 W/m2
16:14 78.1 °F /  25.6 °C 56.2 °F /  13.4 °C 29.95in /  1014.1hPa North 3.1mph /  5km/h 8.1mph /  13km/h 47% 0.00in /  0mm 526 W/m2
16:19 78.1 °F /  25.6 °C 56.3 °F /  13.5 °C 29.95in /  1014.1hPa North 3.2mph /  5.1km/h 6mph /  9.7km/h 47.2% 0.00in /  0mm 496 W/m2
16:24 78 °F /  25.6 °C 56.6 °F /  13.7 °C 29.95in /  1014.1hPa North 2.9mph /  4.7km/h 7mph /  11.3km/h 47.9% 0.00in /  0mm 491 W/m2
16:29 77.9 °F /  25.5 °C 56.6 °F /  13.7 °C 29.95in /  1014.1hPa NNE 3.7mph /  6km/h 7mph /  11.3km/h 48% 0.00in /  0mm 501 W/m2
16:34 77.9 °F /  25.5 °C 56.6 °F /  13.7 °C 29.95in /  1014.1hPa NNE 3.7mph /  6km/h 7mph /  11.3km/h 48% 0.00in /  0mm 519 W/m2
16:39 77.7 °F /  25.4 °C 56.4 °F /  13.6 °C 29.95in /  1014.1hPa NNE 4.1mph /  6.6km/h 8.1mph /  13km/h 48% 0.00in /  0mm 531 W/m2
16:44 77.7 °F /  25.4 °C 56.5 °F /  13.6 °C 29.95in /  1014.1hPa North 2.3mph /  3.7km/h 8mph /  12.9km/h 48.2% 0.00in /  0mm 542 W/m2
16:49 77.6 °F /  25.3 °C 56.4 °F /  13.6 °C 29.94in /  1013.8hPa North 4.4mph /  7.1km/h 7mph /  11.3km/h 48.1% 0.00in /  0mm 540 W/m2
16:54 77.4 °F /  25.2 °C 56.4 °F /  13.6 °C 29.94in /  1013.8hPa NNE 1.7mph /  2.7km/h 7mph /  11.3km/h 48.3% 0.00in /  0mm 531 W/m2
16:59 77.4 °F /  25.2 °C 56.3 °F /  13.5 °C 29.94in /  1013.8hPa North 2.7mph /  4.3km/h 7mph /  11.3km/h 48.3% 0.00in /  0mm 510 W/m2
17:04 77.2 °F /  25.1 °C 56 °F /  13.3 °C 29.94in /  1013.8hPa North 3.5mph /  5.6km/h 6.9mph /  11.1km/h 47.9% 0.00in /  0mm 501 W/m2
17:09 77.1 °F /  25.1 °C 55.3 °F /  12.9 °C 29.94in /  1013.8hPa North 2.7mph /  4.3km/h 8mph /  12.9km/h 47% 0.00in /  0mm 486 W/m2
17:14 77 °F /  25 °C 55.3 °F /  12.9 °C 29.94in /  1013.8hPa North 1.5mph /  2.4km/h 8.1mph /  13km/h 47.2% 0.00in /  0mm 468 W/m2
17:19 76.8 °F /  24.9 °C 55.7 °F /  13.2 °C 29.94in /  1013.8hPa North 2.3mph /  3.7km/h 7mph /  11.3km/h 48.1% 0.00in /  0mm 438 W/m2
17:24 76.8 °F /  24.9 °C 55.5 °F /  13.1 °C 29.94in /  1013.8hPa NNE 3.1mph /  5km/h 7mph /  11.3km/h 47.9% 0.00in /  0mm 422 W/m2
17:29 76.7 °F /  24.8 °C 55.3 °F /  12.9 °C 29.94in /  1013.8hPa North 2.4mph /  3.9km/h 7mph /  11.3km/h 47.7% 0.00in /  0mm 401 W/m2
17:34 76.6 °F /  24.8 °C 55.1 °F /  12.8 °C 29.94in /  1013.8hPa North 3.3mph /  5.3km/h 7mph /  11.3km/h 47.4% 0.00in /  0mm 366 W/m2
17:39 76.5 °F /  24.7 °C 55.4 °F /  13 °C 29.94in /  1013.8hPa North 2.4mph /  3.9km/h 7mph /  11.3km/h 48.1% 0.00in /  0mm 292 W/m2
17:44 76.4 °F /  24.7 °C 55.5 °F /  13.1 °C 29.94in /  1013.8hPa NE 4.1mph /  6.6km/h 7mph /  11.3km/h 48.6% 0.00in /  0mm 285 W/m2
17:49 76.2 °F /  24.6 °C 55.3 °F /  12.9 °C 29.94in /  1013.8hPa North 3.8mph /  6.1km/h 10.4mph /  16.7km/h 48.3% 0.00in /  0mm 292 W/m2
17:54 76.1 °F /  24.5 °C 55.6 °F /  13.1 °C 29.94in /  1013.8hPa North 2.9mph /  4.7km/h 10mph /  16.1km/h 49.2% 0.00in /  0mm 292 W/m2
17:59 75.9 °F /  24.4 °C 55.6 °F /  13.1 °C 29.95in /  1014.1hPa North 3.1mph /  5km/h 7mph /  11.3km/h 49.4% 0.00in /  0mm 285 W/m2
18:04 75.8 °F /  24.3 °C 55.3 °F /  12.9 °C 29.95in /  1014.1hPa North 3.2mph /  5.1km/h 8.1mph /  13km/h 49% 0.00in /  0mm 271 W/m2
18:09 75.5 °F /  24.2 °C 55.5 °F /  13.1 °C 29.95in /  1014.1hPa NNE 3.5mph /  5.6km/h 8mph /  12.9km/h 49.9% 0.00in /  0mm 255 W/m2
18:14 75.3 °F /  24.1 °C 55.4 °F /  13 °C 29.95in /  1014.1hPa North 3.8mph /  6.1km/h 8.1mph /  13km/h 50% 0.00in /  0mm 241 W/m2
18:19 75.1 °F /  23.9 °C 55.3 °F /  12.9 °C 29.95in /  1014.1hPa North 3mph /  4.8km/h 7mph /  11.3km/h 50.3% 0.00in /  0mm 232 W/m2
18:24 74.8 °F /  23.8 °C 55.5 °F /  13.1 °C 29.95in /  1014.1hPa North 3.5mph /  5.6km/h 7mph /  11.3km/h 51% 0.00in /  0mm 216 W/m2
18:29 74.6 °F /  23.7 °C 55.3 °F /  12.9 °C 29.96in /  1014.4hPa North 2.5mph /  4km/h 10.4mph /  16.7km/h 51% 0.00in /  0mm 206 W/m2
18:34 74.2 °F /  23.4 °C 55 °F /  12.8 °C 29.96in /  1014.4hPa NNE 3.4mph /  5.5km/h 10mph /  16.1km/h 51.2% 0.00in /  0mm 197 W/m2
18:39 74 °F /  23.3 °C 54.7 °F /  12.6 °C 29.96in /  1014.4hPa North 2.5mph /  4km/h 7mph /  11.3km/h 51% 0.00in /  0mm 187 W/m2
18:44 73.8 °F /  23.2 °C 55 °F /  12.8 °C 29.96in /  1014.4hPa North 2.6mph /  4.2km/h 7mph /  11.3km/h 51.8% 0.00in /  0mm 141 W/m2
18:49 73.5 °F /  23.1 °C 54.8 °F /  12.7 °C 29.96in /  1014.4hPa North 2.5mph /  4km/h 7mph /  11.3km/h 52% 0.00in /  0mm 134 W/m2
18:54 73.2 °F /  22.9 °C 54.5 °F /  12.5 °C 29.96in /  1014.4hPa NNE 2.2mph /  3.5km/h 6mph /  9.7km/h 52% 0.00in /  0mm 128 W/m2
18:59 72.9 °F /  22.7 °C 54.2 °F /  12.3 °C 29.96in /  1014.4hPa NNE 2.2mph /  3.5km/h 6mph /  9.7km/h 52% 0.00in /  0mm 128 W/m2
19:04 72.7 °F /  22.6 °C 54.2 °F /  12.3 °C 29.96in /  1014.4hPa NNE 2.2mph /  3.5km/h 6mph /  9.7km/h 52.2% 0.00in /  0mm 53 W/m2
19:09 72.4 °F /  22.4 °C 53.8 °F /  12.1 °C 29.96in /  1014.4hPa North 1.5mph /  2.4km/h 8.1mph /  13km/h 52.1% 0.00in /  0mm 33 W/m2
19:14 72.1 °F /  22.3 °C 54 °F /  12.2 °C 29.96in /  1014.4hPa North 1.7mph /  2.7km/h 8mph /  12.9km/h 53% 0.00in /  0mm 32 W/m2
19:19 71.9 °F /  22.2 °C 53.8 °F /  12.1 °C 29.96in /  1014.4hPa North 1.3mph /  2.1km/h 6mph /  9.7km/h 53% 0.00in /  0mm 26 W/m2
19:24 71.6 °F /  22 °C 53.6 °F /  12 °C 29.96in /  1014.4hPa NNE 1mph /  1.6km/h 6mph /  9.7km/h 53% 0.00in /  0mm 25 W/m2
19:29 71.4 °F /  21.9 °C 53.8 °F /  12.1 °C 29.96in /  1014.4hPa North 0.4mph /  0.6km/h 4mph /  6.4km/h 53.9% 0.00in /  0mm 25 W/m2
19:34 71.1 °F /  21.7 °C 53.8 °F /  12.1 °C 29.97in /  1014.8hPa North 0.7mph /  1.1km/h 5mph /  8km/h 54.4% 0.00in /  0mm 21 W/m2
19:39 70.9 °F /  21.6 °C 54.2 °F /  12.3 °C 29.97in /  1014.8hPa North 0.6mph /  1km/h 5mph /  8km/h 55.6% 0.00in /  0mm 19 W/m2
19:44 70.7 °F /  21.5 °C 54.2 °F /  12.3 °C 29.97in /  1014.8hPa North 1.5mph /  2.4km/h 5mph /  8km/h 56% 0.00in /  0mm 18 W/m2
19:49 70.3 °F /  21.3 °C 54.1 °F /  12.3 °C 29.97in /  1014.8hPa North 1.6mph /  2.6km/h 7mph /  11.3km/h 56.4% 0.00in /  0mm 16 W/m2
19:54 70 °F /  21.1 °C 54.1 °F /  12.3 °C 29.97in /  1014.8hPa North 0.8mph /  1.3km/h 7mph /  11.3km/h 57% 0.00in /  0mm 12 W/m2
19:59 69.7 °F /  20.9 °C 54 °F /  12.2 °C 29.97in /  1014.8hPa NNE 0.8mph /  1.3km/h 6mph /  9.7km/h 57.4% 0.00in /  0mm 9 W/m2
20:04 69.3 °F /  20.7 °C 54.2 °F /  12.3 °C 29.97in /  1014.8hPa NNE 0.9mph /  1.4km/h 6mph /  9.7km/h 58.6% 0.00in /  0mm 7 W/m2
20:09 69 °F /  20.6 °C 54.1 °F /  12.3 °C 29.97in /  1014.8hPa North 1.8mph /  2.9km/h 6mph /  9.7km/h 59% 0.00in /  0mm 5 W/m2
20:14 68.6 °F /  20.3 °C 54 °F /  12.2 °C 29.98in /  1015.1hPa North 0.6mph /  1km/h 6mph /  9.7km/h 59.6% 0.00in /  0mm 0 W/m2
20:19 68.3 °F /  20.2 °C 53.9 °F /  12.2 °C 29.98in /  1015.1hPa North 0.6mph /  1km/h 4mph /  6.4km/h 60% 0.00in /  0mm 0 W/m2
20:24 67.9 °F /  19.9 °C 53.5 °F /  11.9 °C 29.98in /  1015.1hPa NNW 1.2mph /  1.9km/h 6mph /  9.7km/h 60% 0.00in /  0mm 0 W/m2
20:29 67.4 °F /  19.7 °C 53.4 °F /  11.9 °C 29.99in /  1015.5hPa North 0.8mph /  1.3km/h 6mph /  9.7km/h 60.8% 0.00in /  0mm 0 W/m2
20:34 66.9 °F /  19.4 °C 53 °F /  11.7 °C 29.99in /  1015.5hPa North 0.6mph /  1km/h 5mph /  8km/h 61% 0.00in /  0mm 0 W/m2
20:39 66.5 °F /  19.2 °C 52.7 °F /  11.5 °C 29.99in /  1015.5hPa North 0.9mph /  1.4km/h 5mph /  8km/h 61.3% 0.00in /  0mm 0 W/m2
20:44 66 °F /  18.9 °C 52.9 °F /  11.6 °C 29.99in /  1015.5hPa North 0.6mph /  1km/h 3.5mph /  5.6km/h 62.8% 0.00in /  0mm 0 W/m2
20:49 65.6 °F /  18.7 °C 52.8 °F /  11.6 °C 29.99in /  1015.5hPa North 0.7mph /  1.1km/h 4mph /  6.4km/h 63.1% 0.00in /  0mm 0 W/m2
20:54 65.3 °F /  18.5 °C 53.1 °F /  11.7 °C 29.99in /  1015.5hPa NNE 0.5mph /  0.8km/h 4mph /  6.4km/h 64.5% 0.00in /  0mm 0 W/m2
20:59 64.9 °F /  18.3 °C 52.8 °F /  11.6 °C 30.00in /  1015.8hPa NE 0.1mph /  0.2km/h 3.5mph /  5.6km/h 65% 0.00in /  0mm 0 W/m2
21:04 64.5 °F /  18.1 °C 52.5 °F /  11.4 °C 30.00in /  1015.8hPa Calm     65% 0.00in /  0mm 0 W/m2
21:09 64.1 °F /  17.8 °C 52.2 °F /  11.2 °C 30.00in /  1015.8hPa Calm     65.2% 0.00in /  0mm 0 W/m2
21:14 63.9 °F /  17.7 °C 52 °F /  11.1 °C 30.01in /  1016.1hPa Calm     65.2% 0.00in /  0mm 0 W/m2
21:19 63.6 °F /  17.6 °C 52 °F /  11.1 °C 30.01in /  1016.1hPa NNE 0.9mph /  1.4km/h 5mph /  8km/h 66.1% 0.00in /  0mm 0 W/m2
21:24 63.3 °F /  17.4 °C 52.1 °F /  11.2 °C 30.01in /  1016.1hPa NNE 0.9mph /  1.4km/h 5mph /  8km/h 67% 0.00in /  0mm 0 W/m2
21:29 63 °F /  17.2 °C 51.9 °F /  11.1 °C 30.01in /  1016.1hPa North 0.8mph /  1.3km/h 4mph /  6.4km/h 67% 0.00in /  0mm 0 W/m2
21:34 62.7 °F /  17.1 °C 51.9 °F /  11.1 °C 30.01in /  1016.1hPa North 0.2mph /  0.3km/h 2.3mph /  3.7km/h 67.6% 0.00in /  0mm 0 W/m2
21:39 62.5 °F /  16.9 °C 51.8 °F /  11 °C 30.01in /  1016.1hPa Calm   1mph /  1.6km/h 68% 0.00in /  0mm 0 W/m2
21:44 62.3 °F /  16.8 °C 51.6 °F /  10.9 °C 30.01in /  1016.1hPa Calm     68.1% 0.00in /  0mm 0 W/m2
21:49 62 °F /  16.7 °C 51.7 °F /  10.9 °C 30.01in /  1016.1hPa Calm     69% 0.00in /  0mm 0 W/m2
21:54 61.8 °F /  16.6 °C 51.6 °F /  10.9 °C 30.02in /  1016.5hPa Calm     69.2% 0.00in /  0mm 0 W/m2
21:59 61.6 °F /  16.4 °C 51.7 °F /  10.9 °C 30.02in /  1016.5hPa Calm     70% 0.00in /  0mm 0 W/m2
22:04 61.4 °F /  16.3 °C 51.6 °F /  10.9 °C 30.02in /  1016.5hPa Calm     70.2% 0.00in /  0mm 0 W/m2
22:09 61.2 °F /  16.2 °C 51.7 °F /  10.9 °C 30.02in /  1016.5hPa Calm     71% 0.00in /  0mm 0 W/m2
22:14 60.9 °F /  16.1 °C 51.6 °F /  10.9 °C 30.02in /  1016.5hPa Calm     71.4% 0.00in /  0mm 0 W/m2
22:19 60.6 °F /  15.9 °C 51.6 °F /  10.9 °C 30.02in /  1016.5hPa Calm     72.2% 0.00in /  0mm 0 W/m2
22:24 60.5 °F /  15.8 °C 51.8 °F /  11 °C 30.02in /  1016.5hPa Calm     73.1% 0.00in /  0mm 0 W/m2
22:29 60.2 °F /  15.7 °C 51.9 °F /  11.1 °C 30.02in /  1016.5hPa Calm     74% 0.00in /  0mm 0 W/m2
22:34 60.1 °F /  15.6 °C 51.8 °F /  11 °C 30.02in /  1016.5hPa Calm     74% 0.00in /  0mm 0 W/m2
22:39 59.9 °F /  15.5 °C 51.7 °F /  10.9 °C 30.02in /  1016.5hPa Calm     74.2% 0.00in /  0mm 0 W/m2
22:44 59.6 °F /  15.3 °C 51.7 °F /  10.9 °C 30.02in /  1016.5hPa Calm     75% 0.00in /  0mm 0 W/m2
22:49 59.4 °F /  15.2 °C 51.6 °F /  10.9 °C 30.02in /  1016.5hPa Calm     75.4% 0.00in /  0mm 0 W/m2
22:54 59.2 °F /  15.1 °C 51.6 °F /  10.9 °C 30.02in /  1016.5hPa Calm     76% 0.00in /  0mm 0 W/m2
22:59 59 °F /  15 °C 51.6 °F /  10.9 °C 30.02in /  1016.5hPa Calm     76.6% 0.00in /  0mm 0 W/m2
23:04 58.8 °F /  14.9 °C 51.7 °F /  10.9 °C 30.02in /  1016.5hPa Calm     77.3% 0.00in /  0mm 0 W/m2
23:09 58.7 °F /  14.8 °C 51.9 °F /  11.1 °C 30.02in /  1016.5hPa Calm     78% 0.00in /  0mm 0 W/m2
23:14 58.5 °F /  14.7 °C 51.7 °F /  10.9 °C 30.02in /  1016.5hPa Calm     78% 0.00in /  0mm 0 W/m2
23:19 58.3 °F /  14.6 °C 51.5 °F /  10.8 °C 30.02in /  1016.5hPa Calm     78% 0.00in /  0mm 0 W/m2
23:24 58.1 °F /  14.5 °C 51.3 °F /  10.7 °C 30.02in /  1016.5hPa Calm     78% 0.00in /  0mm 0 W/m2
23:29 58 °F /  14.4 °C 51.4 °F /  10.8 °C 30.02in /  1016.5hPa Calm     78.7% 0.00in /  0mm 0 W/m2
23:34 57.9 °F /  14.4 °C 51.4 °F /  10.8 °C 30.02in /  1016.5hPa Calm     79% 0.00in /  0mm 0 W/m2
23:39 57.7 °F /  14.3 °C 51.2 °F /  10.7 °C 30.03in /  1016.8hPa Calm     79% 0.00in /  0mm 0 W/m2
23:44 57.5 °F /  14.2 °C 51.1 °F /  10.6 °C 30.03in /  1016.8hPa Calm     79.3% 0.00in /  0mm 0 W/m2
23:49 57.4 °F /  14.1 °C 51 °F /  10.6 °C 30.03in /  1016.8hPa Calm     79.3% 0.00in /  0mm 0 W/m2
23:54 57.2 °F /  14 °C 51.1 °F /  10.6 °C 30.03in /  1016.8hPa Calm     80% 0.00in /  0mm 0 W/m2
23:59 57 °F /  13.9 °C 50.9 °F /  10.5 °C 30.03in /  1016.8hPa Calm     80% 0.00in /  0mm 0 W/m2
Saratoga, California, USA
Compliments of Weather Underground - 2 mb

WU-history PHP script courtesy of Juneau County Weather and modified for WU/TWC API use by Saratoga-weather.org

This script set is available on GitHub.

deformed-offering